sensor_id;sensor_type;location;lat;lon;timestamp;P1;durP1;ratioP1;P2;durP2;ratioP2
71320;SDS011;59118;54.322;18.576;2023-01-15T00:01:49;14.63;;;4.85;;
71320;SDS011;59118;54.322;18.576;2023-01-15T00:04:16;15.63;;;3.17;;
71320;SDS011;59118;54.322;18.576;2023-01-15T00:06:43;12.68;;;5.03;;
71320;SDS011;59118;54.322;18.576;2023-01-15T00:09:12;13.63;;;5.78;;
71320;SDS011;59118;54.322;18.576;2023-01-15T00:11:40;14.43;;;5.20;;
71320;SDS011;59118;54.322;18.576;2023-01-15T00:14:09;16.83;;;6.32;;
71320;SDS011;59118;54.322;18.576;2023-01-15T00:16:37;16.48;;;5.10;;
71320;SDS011;59118;54.322;18.576;2023-01-15T00:19:05;11.60;;;4.07;;
71320;SDS011;59118;54.322;18.576;2023-01-15T00:21:35;10.30;;;4.53;;
71320;SDS011;59118;54.322;18.576;2023-01-15T00:24:02;16.43;;;6.33;;
71320;SDS011;59118;54.322;18.576;2023-01-15T00:26:48;15.35;;;4.63;;
71320;SDS011;59118;54.322;18.576;2023-01-15T00:29:33;8.93;;;3.35;;
71320;SDS011;59118;54.322;18.576;2023-01-15T00:32:06;14.88;;;4.03;;
71320;SDS011;59118;54.322;18.576;2023-01-15T00:34:33;11.45;;;4.18;;
71320;SDS011;59118;54.322;18.576;2023-01-15T00:37:00;10.27;;;3.53;;
71320;SDS011;59118;54.322;18.576;2023-01-15T00:39:27;11.63;;;4.05;;
71320;SDS011;59118;54.322;18.576;2023-01-15T00:41:54;13.70;;;6.38;;
71320;SDS011;59118;54.322;18.576;2023-01-15T00:44:21;6.50;;;3.10;;
71320;SDS011;59118;54.322;18.576;2023-01-15T00:46:48;9.43;;;3.33;;
71320;SDS011;59118;54.322;18.576;2023-01-15T00:49:14;11.57;;;5.07;;
71320;SDS011;59118;54.322;18.576;2023-01-15T00:51:42;14.43;;;4.53;;
71320;SDS011;59118;54.322;18.576;2023-01-15T00:54:08;12.40;;;4.32;;
71320;SDS011;59118;54.322;18.576;2023-01-15T00:56:35;11.38;;;4.28;;
71320;SDS011;59118;54.322;18.576;2023-01-15T00:59:03;15.45;;;4.03;;
71320;SDS011;59118;54.322;18.576;2023-01-15T01:01:30;13.70;;;4.20;;
71320;SDS011;59118;54.322;18.576;2023-01-15T01:03:57;10.98;;;3.80;;
71320;SDS011;59118;54.322;18.576;2023-01-15T01:06:24;9.00;;;3.88;;
71320;SDS011;59118;54.322;18.576;2023-01-15T01:08:50;9.70;;;3.30;;
71320;SDS011;59118;54.322;18.576;2023-01-15T01:11:19;9.20;;;2.92;;
71320;SDS011;59118;54.322;18.576;2023-01-15T01:13:49;10.30;;;3.87;;
71320;SDS011;59118;54.322;18.576;2023-01-15T01:16:37;9.82;;;3.83;;
71320;SDS011;59118;54.322;18.576;2023-01-15T01:19:10;9.18;;;3.10;;
71320;SDS011;59118;54.322;18.576;2023-01-15T01:21:39;9.60;;;3.03;;
71320;SDS011;59118;54.322;18.576;2023-01-15T01:24:06;11.18;;;3.78;;
71320;SDS011;59118;54.322;18.576;2023-01-15T01:26:33;8.30;;;3.33;;
71320;SDS011;59118;54.322;18.576;2023-01-15T01:29:00;6.57;;;2.65;;
71320;SDS011;59118;54.322;18.576;2023-01-15T01:31:27;5.85;;;2.75;;
71320;SDS011;59118;54.322;18.576;2023-01-15T01:33:54;6.88;;;2.65;;
71320;SDS011;59118;54.322;18.576;2023-01-15T01:36:26;10.02;;;3.13;;
71320;SDS011;59118;54.322;18.576;2023-01-15T01:38:57;7.00;;;2.90;;
71320;SDS011;59118;54.322;18.576;2023-01-15T01:41:23;11.05;;;3.65;;
71320;SDS011;59118;54.322;18.576;2023-01-15T01:46:25;9.77;;;3.70;;
71320;SDS011;59118;54.322;18.576;2023-01-15T01:48:55;4.45;;;1.65;;
71320;SDS011;59118;54.322;18.576;2023-01-15T01:51:26;10.47;;;2.30;;
71320;SDS011;59118;54.322;18.576;2023-01-15T01:53:54;8.38;;;2.63;;
71320;SDS011;59118;54.322;18.576;2023-01-15T01:56:22;8.43;;;3.13;;
71320;SDS011;59118;54.322;18.576;2023-01-15T01:58:50;9.27;;;2.15;;
71320;SDS011;59118;54.322;18.576;2023-01-15T02:01:18;9.32;;;2.72;;
71320;SDS011;59118;54.322;18.576;2023-01-15T02:03:46;8.30;;;1.97;;
71320;SDS011;59118;54.322;18.576;2023-01-15T02:06:12;11.20;;;2.30;;
71320;SDS011;59118;54.322;18.576;2023-01-15T02:08:39;8.88;;;2.97;;
71320;SDS011;59118;54.322;18.576;2023-01-15T02:11:07;9.00;;;2.33;;
71320;SDS011;59118;54.322;18.576;2023-01-15T02:13:37;7.10;;;2.55;;
71320;SDS011;59118;54.322;18.576;2023-01-15T02:16:22;7.53;;;2.20;;
71320;SDS011;59118;54.322;18.576;2023-01-15T02:19:03;9.00;;;3.38;;
71320;SDS011;59118;54.322;18.576;2023-01-15T02:21:47;6.88;;;2.33;;
71320;SDS011;59118;54.322;18.576;2023-01-15T02:25:12;4.07;;;1.80;;
71320;SDS011;59118;54.322;18.576;2023-01-15T02:27:43;7.88;;;2.92;;
71320;SDS011;59118;54.322;18.576;2023-01-15T02:30:16;4.63;;;1.93;;
71320;SDS011;59118;54.322;18.576;2023-01-15T02:33:04;8.23;;;1.55;;
71320;SDS011;59118;54.322;18.576;2023-01-15T02:35:35;8.75;;;3.05;;
71320;SDS011;59118;54.322;18.576;2023-01-15T02:38:07;8.65;;;3.03;;
71320;SDS011;59118;54.322;18.576;2023-01-15T02:40:35;4.32;;;1.90;;
71320;SDS011;59118;54.322;18.576;2023-01-15T02:43:03;6.53;;;1.83;;
71320;SDS011;59118;54.322;18.576;2023-01-15T02:45:31;5.22;;;2.08;;
71320;SDS011;59118;54.322;18.576;2023-01-15T02:48:07;6.47;;;2.20;;
71320;SDS011;59118;54.322;18.576;2023-01-15T02:50:39;7.93;;;2.85;;
71320;SDS011;59118;54.322;18.576;2023-01-15T02:53:12;7.47;;;1.92;;
71320;SDS011;59118;54.322;18.576;2023-01-15T02:55:43;8.70;;;2.07;;
71320;SDS011;59118;54.322;18.576;2023-01-15T02:58:13;6.22;;;1.85;;
71320;SDS011;59118;54.322;18.576;2023-01-15T03:00:44;7.28;;;1.50;;
71320;SDS011;59118;54.322;18.576;2023-01-15T03:03:15;4.53;;;1.50;;
71320;SDS011;59118;54.322;18.576;2023-01-15T03:05:56;9.52;;;2.38;;
71320;SDS011;59118;54.322;18.576;2023-01-15T03:08:27;9.00;;;2.57;;
71320;SDS011;59118;54.322;18.576;2023-01-15T03:13:50;6.63;;;2.00;;
71320;SDS011;59118;54.322;18.576;2023-01-15T03:16:33;5.28;;;1.80;;
71320;SDS011;59118;54.322;18.576;2023-01-15T03:22:15;6.37;;;1.80;;
71320;SDS011;59118;54.322;18.576;2023-01-15T03:24:54;5.80;;;2.47;;
71320;SDS011;59118;54.322;18.576;2023-01-15T03:27:26;6.72;;;1.58;;
71320;SDS011;59118;54.322;18.576;2023-01-15T03:29:53;3.97;;;1.50;;
71320;SDS011;59118;54.322;18.576;2023-01-15T03:32:25;4.07;;;1.65;;
71320;SDS011;59118;54.322;18.576;2023-01-15T03:34:53;6.90;;;2.00;;
71320;SDS011;59118;54.322;18.576;2023-01-15T03:37:21;6.40;;;1.50;;
71320;SDS011;59118;54.322;18.576;2023-01-15T03:39:50;4.35;;;1.45;;
71320;SDS011;59118;54.322;18.576;2023-01-15T03:44:54;6.25;;;1.90;;
71320;SDS011;59118;54.322;18.576;2023-01-15T03:47:34;5.37;;;1.80;;
71320;SDS011;59118;54.322;18.576;2023-01-15T03:50:39;6.38;;;1.88;;
71320;SDS011;59118;54.322;18.576;2023-01-15T03:53:10;8.40;;;2.42;;
71320;SDS011;59118;54.322;18.576;2023-01-15T03:55:44;3.25;;;1.13;;
71320;SDS011;59118;54.322;18.576;2023-01-15T03:58:51;6.38;;;1.88;;
71320;SDS011;59118;54.322;18.576;2023-01-15T04:01:12;3.53;;;1.33;;
71320;SDS011;59118;54.322;18.576;2023-01-15T04:03:42;5.15;;;2.03;;
71320;SDS011;59118;54.322;18.576;2023-01-15T04:06:10;6.35;;;1.80;;
71320;SDS011;59118;54.322;18.576;2023-01-15T04:08:38;6.72;;;2.15;;
71320;SDS011;59118;54.322;18.576;2023-01-15T04:11:06;7.57;;;2.65;;
71320;SDS011;59118;54.322;18.576;2023-01-15T04:13:32;6.10;;;1.67;;
71320;SDS011;59118;54.322;18.576;2023-01-15T04:15:59;5.65;;;1.75;;
71320;SDS011;59118;54.322;18.576;2023-01-15T04:18:29;6.30;;;2.50;;
71320;SDS011;59118;54.322;18.576;2023-01-15T04:20:55;4.20;;;1.33;;
71320;SDS011;59118;54.322;18.576;2023-01-15T04:23:22;3.65;;;1.65;;
71320;SDS011;59118;54.322;18.576;2023-01-15T04:25:49;6.93;;;2.40;;
71320;SDS011;59118;54.322;18.576;2023-01-15T04:28:17;3.13;;;1.55;;
71320;SDS011;59118;54.322;18.576;2023-01-15T04:30:44;8.05;;;2.00;;
71320;SDS011;59118;54.322;18.576;2023-01-15T04:33:14;5.57;;;1.88;;
71320;SDS011;59118;54.322;18.576;2023-01-15T04:35:40;2.28;;;1.13;;
71320;SDS011;59118;54.322;18.576;2023-01-15T04:38:08;5.83;;;1.50;;
71320;SDS011;59118;54.322;18.576;2023-01-15T04:40:35;5.45;;;1.90;;
71320;SDS011;59118;54.322;18.576;2023-01-15T04:43:20;4.97;;;1.52;;
71320;SDS011;59118;54.322;18.576;2023-01-15T04:46:05;6.72;;;2.28;;
71320;SDS011;59118;54.322;18.576;2023-01-15T04:48:33;4.43;;;2.05;;
71320;SDS011;59118;54.322;18.576;2023-01-15T04:51:03;8.07;;;2.20;;
71320;SDS011;59118;54.322;18.576;2023-01-15T04:53:32;4.65;;;1.70;;
71320;SDS011;59118;54.322;18.576;2023-01-15T04:56:00;8.30;;;1.95;;
71320;SDS011;59118;54.322;18.576;2023-01-15T04:58:27;5.75;;;1.70;;
71320;SDS011;59118;54.322;18.576;2023-01-15T05:00:54;6.15;;;1.83;;
71320;SDS011;59118;54.322;18.576;2023-01-15T05:03:22;8.27;;;1.83;;
71320;SDS011;59118;54.322;18.576;2023-01-15T05:05:51;3.92;;;1.75;;
71320;SDS011;59118;54.322;18.576;2023-01-15T05:08:17;3.83;;;1.33;;
71320;SDS011;59118;54.322;18.576;2023-01-15T05:10:44;5.20;;;2.10;;
71320;SDS011;59118;54.322;18.576;2023-01-15T05:13:11;6.03;;;2.17;;
71320;SDS011;59118;54.322;18.576;2023-01-15T05:15:37;3.73;;;1.60;;
71320;SDS011;59118;54.322;18.576;2023-01-15T05:18:06;4.57;;;1.70;;
71320;SDS011;59118;54.322;18.576;2023-01-15T05:20:35;6.32;;;1.58;;
71320;SDS011;59118;54.322;18.576;2023-01-15T05:23:02;7.00;;;2.35;;
71320;SDS011;59118;54.322;18.576;2023-01-15T05:25:29;3.20;;;1.50;;
71320;SDS011;59118;54.322;18.576;2023-01-15T05:27:56;3.80;;;1.53;;
71320;SDS011;59118;54.322;18.576;2023-01-15T05:30:22;6.40;;;2.00;;
71320;SDS011;59118;54.322;18.576;2023-01-15T05:32:49;4.50;;;1.42;;
71320;SDS011;59118;54.322;18.576;2023-01-15T05:35:15;4.57;;;1.33;;
71320;SDS011;59118;54.322;18.576;2023-01-15T05:37:42;4.25;;;1.50;;
71320;SDS011;59118;54.322;18.576;2023-01-15T05:40:08;3.27;;;1.33;;
71320;SDS011;59118;54.322;18.576;2023-01-15T05:42:35;4.60;;;2.25;;
71320;SDS011;59118;54.322;18.576;2023-01-15T05:45:02;3.30;;;1.30;;
71320;SDS011;59118;54.322;18.576;2023-01-15T05:47:29;3.92;;;1.40;;
71320;SDS011;59118;54.322;18.576;2023-01-15T05:49:55;4.18;;;1.77;;
71320;SDS011;59118;54.322;18.576;2023-01-15T05:52:22;5.97;;;1.90;;
71320;SDS011;59118;54.322;18.576;2023-01-15T05:54:51;4.43;;;1.20;;
71320;SDS011;59118;54.322;18.576;2023-01-15T05:57:17;3.53;;;1.30;;
71320;SDS011;59118;54.322;18.576;2023-01-15T05:59:44;4.82;;;1.80;;
71320;SDS011;59118;54.322;18.576;2023-01-15T06:02:13;2.83;;;1.20;;
71320;SDS011;59118;54.322;18.576;2023-01-15T06:04:39;4.53;;;1.70;;
71320;SDS011;59118;54.322;18.576;2023-01-15T06:07:06;5.78;;;1.58;;
71320;SDS011;59118;54.322;18.576;2023-01-15T06:09:32;5.32;;;1.50;;
71320;SDS011;59118;54.322;18.576;2023-01-15T06:11:59;3.85;;;1.70;;
71320;SDS011;59118;54.322;18.576;2023-01-15T06:14:25;2.88;;;1.35;;
71320;SDS011;59118;54.322;18.576;2023-01-15T06:16:52;3.20;;;1.60;;
71320;SDS011;59118;54.322;18.576;2023-01-15T06:19:18;4.47;;;1.70;;
71320;SDS011;59118;54.322;18.576;2023-01-15T06:21:45;4.30;;;1.90;;
71320;SDS011;59118;54.322;18.576;2023-01-15T06:24:12;4.10;;;1.88;;
71320;SDS011;59118;54.322;18.576;2023-01-15T06:26:41;3.63;;;1.77;;
71320;SDS011;59118;54.322;18.576;2023-01-15T06:29:08;5.67;;;1.50;;
71320;SDS011;59118;54.322;18.576;2023-01-15T06:31:34;4.93;;;1.58;;
71320;SDS011;59118;54.322;18.576;2023-01-15T06:34:01;4.00;;;1.40;;
71320;SDS011;59118;54.322;18.576;2023-01-15T06:36:29;3.20;;;1.67;;
71320;SDS011;59118;54.322;18.576;2023-01-15T06:38:56;3.15;;;1.13;;
71320;SDS011;59118;54.322;18.576;2023-01-15T06:41:23;3.57;;;1.40;;
71320;SDS011;59118;54.322;18.576;2023-01-15T06:44:11;3.30;;;1.35;;
71320;SDS011;59118;54.322;18.576;2023-01-15T06:46:57;3.40;;;1.50;;
71320;SDS011;59118;54.322;18.576;2023-01-15T06:49:48;3.70;;;1.50;;
71320;SDS011;59118;54.322;18.576;2023-01-15T06:52:16;4.05;;;1.60;;
71320;SDS011;59118;54.322;18.576;2023-01-15T06:54:42;2.80;;;1.40;;
71320;SDS011;59118;54.322;18.576;2023-01-15T06:57:09;4.88;;;1.85;;
71320;SDS011;59118;54.322;18.576;2023-01-15T06:59:36;3.13;;;1.48;;
71320;SDS011;59118;54.322;18.576;2023-01-15T07:02:04;1.95;;;0.85;;
71320;SDS011;59118;54.322;18.576;2023-01-15T07:04:31;2.83;;;1.33;;
71320;SDS011;59118;54.322;18.576;2023-01-15T07:06:58;3.97;;;1.20;;
71320;SDS011;59118;54.322;18.576;2023-01-15T07:09:24;3.00;;;1.20;;
71320;SDS011;59118;54.322;18.576;2023-01-15T07:11:51;1.33;;;0.73;;
71320;SDS011;59118;54.322;18.576;2023-01-15T07:14:18;4.03;;;1.38;;
71320;SDS011;59118;54.322;18.576;2023-01-15T07:16:46;3.38;;;1.50;;
71320;SDS011;59118;54.322;18.576;2023-01-15T07:19:13;2.57;;;1.07;;
71320;SDS011;59118;54.322;18.576;2023-01-15T07:21:42;1.83;;;1.00;;
71320;SDS011;59118;54.322;18.576;2023-01-15T07:24:09;1.98;;;1.05;;
71320;SDS011;59118;54.322;18.576;2023-01-15T07:26:39;2.60;;;1.27;;
71320;SDS011;59118;54.322;18.576;2023-01-15T07:29:06;1.70;;;1.02;;
71320;SDS011;59118;54.322;18.576;2023-01-15T07:31:33;2.93;;;1.40;;
71320;SDS011;59118;54.322;18.576;2023-01-15T07:34:02;4.10;;;1.52;;
71320;SDS011;59118;54.322;18.576;2023-01-15T07:36:28;2.42;;;1.30;;
71320;SDS011;59118;54.322;18.576;2023-01-15T07:38:55;2.83;;;1.02;;
71320;SDS011;59118;54.322;18.576;2023-01-15T07:41:23;2.80;;;1.25;;
71320;SDS011;59118;54.322;18.576;2023-01-15T07:44:10;2.60;;;1.10;;
71320;SDS011;59118;54.322;18.576;2023-01-15T07:46:57;2.95;;;1.48;;
71320;SDS011;59118;54.322;18.576;2023-01-15T07:49:42;3.78;;;1.45;;
71320;SDS011;59118;54.322;18.576;2023-01-15T07:52:17;1.38;;;0.57;;
71320;SDS011;59118;54.322;18.576;2023-01-15T07:54:45;3.08;;;1.20;;
71320;SDS011;59118;54.322;18.576;2023-01-15T07:57:13;1.97;;;0.73;;
71320;SDS011;59118;54.322;18.576;2023-01-15T07:59:42;3.00;;;1.20;;
71320;SDS011;59118;54.322;18.576;2023-01-15T08:02:14;3.42;;;1.50;;
71320;SDS011;59118;54.322;18.576;2023-01-15T08:04:41;3.47;;;1.52;;
71320;SDS011;59118;54.322;18.576;2023-01-15T08:07:08;2.08;;;0.70;;
71320;SDS011;59118;54.322;18.576;2023-01-15T08:09:35;2.10;;;0.73;;
71320;SDS011;59118;54.322;18.576;2023-01-15T08:12:02;2.55;;;0.50;;
71320;SDS011;59118;54.322;18.576;2023-01-15T08:14:47;2.03;;;0.52;;
71320;SDS011;59118;54.322;18.576;2023-01-15T08:17:38;0.90;;;0.40;;
71320;SDS011;59118;54.322;18.576;2023-01-15T08:20:15;1.60;;;0.40;;
71320;SDS011;59118;54.322;18.576;2023-01-15T08:23:04;1.77;;;0.40;;
71320;SDS011;59118;54.322;18.576;2023-01-15T08:25:32;2.28;;;0.50;;
71320;SDS011;59118;54.322;18.576;2023-01-15T08:28:01;1.15;;;0.45;;
71320;SDS011;59118;54.322;18.576;2023-01-15T08:30:32;4.70;;;0.40;;
71320;SDS011;59118;54.322;18.576;2023-01-15T08:33:06;1.73;;;0.60;;
71320;SDS011;59118;54.322;18.576;2023-01-15T08:35:32;1.43;;;0.50;;
71320;SDS011;59118;54.322;18.576;2023-01-15T08:38:05;2.78;;;0.70;;
71320;SDS011;59118;54.322;18.576;2023-01-15T08:40:45;2.75;;;0.70;;
71320;SDS011;59118;54.322;18.576;2023-01-15T08:43:52;1.85;;;0.63;;
71320;SDS011;59118;54.322;18.576;2023-01-15T08:46:21;2.35;;;0.82;;
71320;SDS011;59118;54.322;18.576;2023-01-15T08:49:13;3.00;;;0.80;;
71320;SDS011;59118;54.322;18.576;2023-01-15T08:51:39;3.30;;;1.00;;
71320;SDS011;59118;54.322;18.576;2023-01-15T08:54:06;3.30;;;1.00;;
71320;SDS011;59118;54.322;18.576;2023-01-15T08:56:32;4.45;;;0.80;;
71320;SDS011;59118;54.322;18.576;2023-01-15T08:59:02;6.50;;;1.00;;
71320;SDS011;59118;54.322;18.576;2023-01-15T09:01:33;2.73;;;0.90;;
71320;SDS011;59118;54.322;18.576;2023-01-15T09:04:00;6.50;;;1.00;;
71320;SDS011;59118;54.322;18.576;2023-01-15T09:06:27;4.10;;;1.08;;
71320;SDS011;59118;54.322;18.576;2023-01-15T09:08:54;3.40;;;0.90;;
71320;SDS011;59118;54.322;18.576;2023-01-15T09:11:22;4.22;;;1.45;;
71320;SDS011;59118;54.322;18.576;2023-01-15T09:13:49;4.80;;;1.07;;
71320;SDS011;59118;54.322;18.576;2023-01-15T09:16:16;3.88;;;0.80;;
71320;SDS011;59118;54.322;18.576;2023-01-15T09:18:44;5.78;;;1.50;;
71320;SDS011;59118;54.322;18.576;2023-01-15T09:21:11;5.57;;;1.00;;
71320;SDS011;59118;54.322;18.576;2023-01-15T09:23:39;4.15;;;0.90;;
71320;SDS011;59118;54.322;18.576;2023-01-15T09:26:55;6.50;;;1.00;;
71320;SDS011;59118;54.322;18.576;2023-01-15T09:28:58;4.53;;;0.80;;
71320;SDS011;59118;54.322;18.576;2023-01-15T09:31:27;4.03;;;1.10;;
71320;SDS011;59118;54.322;18.576;2023-01-15T09:33:57;4.20;;;1.10;;
71320;SDS011;59118;54.322;18.576;2023-01-15T09:36:28;6.20;;;1.27;;
71320;SDS011;59118;54.322;18.576;2023-01-15T09:38:57;6.73;;;1.43;;
71320;SDS011;59118;54.322;18.576;2023-01-15T09:41:24;7.07;;;1.55;;
71320;SDS011;59118;54.322;18.576;2023-01-15T09:44:59;5.63;;;1.33;;
71320;SDS011;59118;54.322;18.576;2023-01-15T09:47:10;4.28;;;1.10;;
71320;SDS011;59118;54.322;18.576;2023-01-15T09:55:19;8.05;;;1.90;;
71320;SDS011;59118;54.322;18.576;2023-01-15T09:57:53;5.07;;;1.42;;
71320;SDS011;59118;54.322;18.576;2023-01-15T10:00:22;7.55;;;1.80;;
71320;SDS011;59118;54.322;18.576;2023-01-15T10:05:25;5.83;;;1.40;;
71320;SDS011;59118;54.322;18.576;2023-01-15T10:10:51;6.22;;;1.90;;
71320;SDS011;59118;54.322;18.576;2023-01-15T10:13:27;5.25;;;1.63;;
71320;SDS011;59118;54.322;18.576;2023-01-15T10:15:55;8.60;;;1.70;;
71320;SDS011;59118;54.322;18.576;2023-01-15T10:18:24;6.20;;;1.50;;
71320;SDS011;59118;54.322;18.576;2023-01-15T10:20:58;8.40;;;2.15;;
71320;SDS011;59118;54.322;18.576;2023-01-15T10:26:38;8.20;;;1.80;;
71320;SDS011;59118;54.322;18.576;2023-01-15T10:32:33;6.17;;;1.60;;
71320;SDS011;59118;54.322;18.576;2023-01-15T10:35:23;5.47;;;1.77;;
71320;SDS011;59118;54.322;18.576;2023-01-15T10:46:32;8.63;;;1.43;;
71320;SDS011;59118;54.322;18.576;2023-01-15T10:49:13;7.18;;;1.63;;
71320;SDS011;59118;54.322;18.576;2023-01-15T10:51:46;5.57;;;1.35;;
71320;SDS011;59118;54.322;18.576;2023-01-15T10:59:41;6.33;;;1.70;;
71320;SDS011;59118;54.322;18.576;2023-01-15T11:02:33;3.70;;;1.20;;
71320;SDS011;59118;54.322;18.576;2023-01-15T11:05:05;4.50;;;1.20;;
71320;SDS011;59118;54.322;18.576;2023-01-15T11:07:41;3.85;;;1.17;;
71320;SDS011;59118;54.322;18.576;2023-01-15T11:10:29;11.40;;;1.67;;
71320;SDS011;59118;54.322;18.576;2023-01-15T11:13:07;5.87;;;1.50;;
71320;SDS011;59118;54.322;18.576;2023-01-15T11:16:11;6.15;;;1.50;;
71320;SDS011;59118;54.322;18.576;2023-01-15T11:19:02;3.85;;;1.50;;
71320;SDS011;59118;54.322;18.576;2023-01-15T11:21:48;7.32;;;1.65;;
71320;SDS011;59118;54.322;18.576;2023-01-15T11:24:16;3.95;;;1.40;;
71320;SDS011;59118;54.322;18.576;2023-01-15T11:26:47;7.33;;;2.00;;
71320;SDS011;59118;54.322;18.576;2023-01-15T11:32:01;4.65;;;1.38;;
71320;SDS011;59118;54.322;18.576;2023-01-15T11:34:31;5.55;;;1.52;;
71320;SDS011;59118;54.322;18.576;2023-01-15T11:37:01;4.28;;;1.30;;
71320;SDS011;59118;54.322;18.576;2023-01-15T11:39:31;4.67;;;1.30;;
71320;SDS011;59118;54.322;18.576;2023-01-15T11:41:58;5.38;;;1.00;;
71320;SDS011;59118;54.322;18.576;2023-01-15T11:44:51;6.18;;;1.40;;
71320;SDS011;59118;54.322;18.576;2023-01-15T11:47:36;4.93;;;1.35;;
71320;SDS011;59118;54.322;18.576;2023-01-15T11:50:22;3.10;;;1.00;;
71320;SDS011;59118;54.322;18.576;2023-01-15T11:53:13;3.77;;;1.27;;
71320;SDS011;59118;54.322;18.576;2023-01-15T11:55:52;3.42;;;1.23;;
71320;SDS011;59118;54.322;18.576;2023-01-15T11:58:22;5.13;;;1.80;;
71320;SDS011;59118;54.322;18.576;2023-01-15T12:00:50;7.35;;;1.40;;
71320;SDS011;59118;54.322;18.576;2023-01-15T12:03:20;3.28;;;0.68;;
71320;SDS011;59118;54.322;18.576;2023-01-15T12:06:01;6.00;;;0.80;;
71320;SDS011;59118;54.322;18.576;2023-01-15T12:08:34;5.07;;;1.10;;
71320;SDS011;59118;54.322;18.576;2023-01-15T12:13:56;2.25;;;0.70;;
71320;SDS011;59118;54.322;18.576;2023-01-15T12:17:06;4.82;;;1.20;;
71320;SDS011;59118;54.322;18.576;2023-01-15T12:25:33;6.28;;;1.70;;
71320;SDS011;59118;54.322;18.576;2023-01-15T12:28:20;5.28;;;1.90;;
71320;SDS011;59118;54.322;18.576;2023-01-15T12:30:54;9.30;;;2.13;;
71320;SDS011;59118;54.322;18.576;2023-01-15T12:33:34;4.97;;;1.50;;
71320;SDS011;59118;54.322;18.576;2023-01-15T12:36:12;6.18;;;1.95;;
71320;SDS011;59118;54.322;18.576;2023-01-15T12:38:49;5.68;;;1.60;;
71320;SDS011;59118;54.322;18.576;2023-01-15T12:41:20;5.18;;;1.80;;
71320;SDS011;59118;54.322;18.576;2023-01-15T12:44:23;5.38;;;1.05;;
71320;SDS011;59118;54.322;18.576;2023-01-15T12:47:19;1.10;;;0.63;;
71320;SDS011;59118;54.322;18.576;2023-01-15T12:50:18;1.77;;;0.88;;
71320;SDS011;59118;54.322;18.576;2023-01-15T12:58:42;13.27;;;2.85;;
71320;SDS011;59118;54.322;18.576;2023-01-15T13:04:56;9.10;;;2.33;;
71320;SDS011;59118;54.322;18.576;2023-01-15T13:07:19;6.53;;;1.85;;
71320;SDS011;59118;54.322;18.576;2023-01-15T13:12:48;8.85;;;1.77;;
71320;SDS011;59118;54.322;18.576;2023-01-15T13:15:17;8.83;;;2.60;;
71320;SDS011;59118;54.322;18.576;2023-01-15T13:20:48;6.50;;;1.73;;
71320;SDS011;59118;54.322;18.576;2023-01-15T13:26:16;3.22;;;1.10;;
71320;SDS011;59118;54.322;18.576;2023-01-15T13:29:19;6.93;;;2.00;;
71320;SDS011;59118;54.322;18.576;2023-01-15T13:32:02;3.97;;;1.27;;
71320;SDS011;59118;54.322;18.576;2023-01-15T13:34:41;6.15;;;1.63;;
71320;SDS011;59118;54.322;18.576;2023-01-15T13:40:32;7.32;;;1.70;;
71320;SDS011;59118;54.322;18.576;2023-01-15T13:43:37;7.40;;;1.87;;
71320;SDS011;59118;54.322;18.576;2023-01-15T13:46:07;2.25;;;0.98;;
71320;SDS011;59118;54.322;18.576;2023-01-15T13:48:44;4.43;;;1.10;;
71320;SDS011;59118;54.322;18.576;2023-01-15T13:51:22;6.88;;;1.70;;
71320;SDS011;59118;54.322;18.576;2023-01-15T13:57:39;4.40;;;1.73;;
71320;SDS011;59118;54.322;18.576;2023-01-15T14:00:24;6.22;;;1.60;;
71320;SDS011;59118;54.322;18.576;2023-01-15T14:03:29;3.90;;;1.60;;
71320;SDS011;59118;54.322;18.576;2023-01-15T14:05:58;7.40;;;1.77;;
71320;SDS011;59118;54.322;18.576;2023-01-15T14:08:27;4.30;;;1.80;;
71320;SDS011;59118;54.322;18.576;2023-01-15T14:12:05;7.40;;;1.67;;
71320;SDS011;59118;54.322;18.576;2023-01-15T14:23:07;4.38;;;1.52;;
71320;SDS011;59118;54.322;18.576;2023-01-15T14:26:28;3.50;;;1.20;;
71320;SDS011;59118;54.322;18.576;2023-01-15T14:34:24;6.03;;;1.70;;
71320;SDS011;59118;54.322;18.576;2023-01-15T14:36:57;5.28;;;1.30;;
71320;SDS011;59118;54.322;18.576;2023-01-15T14:39:38;4.30;;;1.20;;
71320;SDS011;59118;54.322;18.576;2023-01-15T14:42:11;7.75;;;1.85;;
71320;SDS011;59118;54.322;18.576;2023-01-15T14:45:06;4.50;;;1.50;;
71320;SDS011;59118;54.322;18.576;2023-01-15T15:01:13;10.15;;;2.78;;
71320;SDS011;59118;54.322;18.576;2023-01-15T15:03:54;6.07;;;1.85;;
71320;SDS011;59118;54.322;18.576;2023-01-15T15:06:24;7.47;;;2.80;;
71320;SDS011;59118;54.322;18.576;2023-01-15T15:08:56;7.00;;;2.03;;
71320;SDS011;59118;54.322;18.576;2023-01-15T15:11:37;7.78;;;2.00;;
71320;SDS011;59118;54.322;18.576;2023-01-15T15:14:27;7.55;;;2.10;;
71320;SDS011;59118;54.322;18.576;2023-01-15T15:16:57;6.40;;;1.20;;
71320;SDS011;59118;54.322;18.576;2023-01-15T15:19:33;3.03;;;1.17;;
71320;SDS011;59118;54.322;18.576;2023-01-15T15:22:02;5.15;;;1.75;;
71320;SDS011;59118;54.322;18.576;2023-01-15T15:24:32;9.82;;;2.20;;
71320;SDS011;59118;54.322;18.576;2023-01-15T15:30:03;6.30;;;1.77;;
71320;SDS011;59118;54.322;18.576;2023-01-15T15:32:31;4.73;;;1.40;;
71320;SDS011;59118;54.322;18.576;2023-01-15T15:35:15;6.75;;;1.95;;
71320;SDS011;59118;54.322;18.576;2023-01-15T15:37:59;5.30;;;1.95;;
71320;SDS011;59118;54.322;18.576;2023-01-15T15:40:55;4.30;;;1.58;;
71320;SDS011;59118;54.322;18.576;2023-01-15T15:46:49;5.47;;;1.63;;
71320;SDS011;59118;54.322;18.576;2023-01-15T15:49:38;4.18;;;1.30;;
71320;SDS011;59118;54.322;18.576;2023-01-15T15:52:16;6.00;;;1.60;;
71320;SDS011;59118;54.322;18.576;2023-01-15T15:54:56;11.68;;;2.42;;
71320;SDS011;59118;54.322;18.576;2023-01-15T15:57:28;6.18;;;1.58;;
71320;SDS011;59118;54.322;18.576;2023-01-15T15:59:56;3.20;;;1.73;;
71320;SDS011;59118;54.322;18.576;2023-01-15T16:02:33;6.95;;;2.33;;
71320;SDS011;59118;54.322;18.576;2023-01-15T16:07:48;8.65;;;2.30;;
71320;SDS011;59118;54.322;18.576;2023-01-15T16:10:16;8.43;;;2.17;;
71320;SDS011;59118;54.322;18.576;2023-01-15T16:12:52;4.63;;;1.37;;
71320;SDS011;59118;54.322;18.576;2023-01-15T16:15:24;7.50;;;2.22;;
71320;SDS011;59118;54.322;18.576;2023-01-15T16:17:58;7.47;;;2.47;;
71320;SDS011;59118;54.322;18.576;2023-01-15T16:20:28;3.65;;;1.13;;
71320;SDS011;59118;54.322;18.576;2023-01-15T16:22:55;6.93;;;2.30;;
71320;SDS011;59118;54.322;18.576;2023-01-15T16:27:52;10.73;;;2.40;;
71320;SDS011;59118;54.322;18.576;2023-01-15T16:30:23;5.45;;;2.15;;
71320;SDS011;59118;54.322;18.576;2023-01-15T16:32:49;10.80;;;3.55;;
71320;SDS011;59118;54.322;18.576;2023-01-15T16:35:19;10.05;;;3.25;;
71320;SDS011;59118;54.322;18.576;2023-01-15T16:37:54;10.23;;;3.20;;
71320;SDS011;59118;54.322;18.576;2023-01-15T16:43:02;9.27;;;3.28;;
71320;SDS011;59118;54.322;18.576;2023-01-15T16:45:29;10.00;;;3.05;;
71320;SDS011;59118;54.322;18.576;2023-01-15T16:48:01;6.28;;;1.90;;
71320;SDS011;59118;54.322;18.576;2023-01-15T16:50:29;5.63;;;2.20;;
71320;SDS011;59118;54.322;18.576;2023-01-15T16:52:57;7.82;;;2.58;;
71320;SDS011;59118;54.322;18.576;2023-01-15T16:55:44;4.13;;;1.65;;
71320;SDS011;59118;54.322;18.576;2023-01-15T17:00:43;4.00;;;1.63;;
71320;SDS011;59118;54.322;18.576;2023-01-15T17:03:19;10.13;;;2.63;;
71320;SDS011;59118;54.322;18.576;2023-01-15T17:05:48;10.73;;;2.45;;
71320;SDS011;59118;54.322;18.576;2023-01-15T17:08:23;5.90;;;2.05;;
71320;SDS011;59118;54.322;18.576;2023-01-15T17:10:59;6.20;;;2.40;;
71320;SDS011;59118;54.322;18.576;2023-01-15T17:13:32;9.93;;;2.28;;